Time;durP1;ratioP1;P1;durP2;ratioP2;P2;SDS_P1;SDS_P2;PMS_P1;PMS_P2;Temp;Humidity;BMP_temperature;BMP_pressure;BME280_temperature;BME280_humidity;BME280_pressure;Samples;Min_cycle;Max_cycle;Signal;HPM_P1;HPM_P2
2022/07/27 00:00:52;;;;;;;0.70;0.70;;;;;;;21.32;84.09;95365.75;4290947;33;20257;-60
2022/07/27 00:03:17;;;;;;;0.90;0.90;;;;;;;21.23;84.09;95363.28;4280156;33;20237;-61
2022/07/27 00:05:42;;;;;;;2.13;0.80;;;;;;;21.10;85.36;95369.19;4282532;33;20245;-60
2022/07/27 00:08:08;;;;;;;0.77;0.77;;;;;;;21.25;84.71;95363.72;4302137;33;20194;-61
2022/07/27 00:10:35;;;;;;;1.27;1.00;;;;;;;21.25;84.54;95361.00;4278120;33;20203;-61
2022/07/27 00:13:01;;;;;;;1.17;1.17;;;;;;;21.17;84.57;95358.53;4295375;33;23621;-61
2022/07/27 00:15:27;;;;;;;1.13;1.13;;;;;;;21.12;84.61;95346.13;4289556;33;20205;-61
2022/07/27 00:17:52;;;;;;;0.80;0.80;;;;;;;20.91;85.71;95349.22;4277558;33;20182;-60
2022/07/27 00:20:18;;;;;;;0.83;0.83;;;;;;;20.98;85.72;95345.88;4288750;33;20241;-60
2022/07/27 00:22:43;;;;;;;1.00;1.00;;;;;;;21.02;85.37;95344.00;4285506;33;20206;-61
2022/07/27 00:25:08;;;;;;;0.97;0.97;;;;;;;21.18;84.88;95350.09;4293878;33;20214;-61
2022/07/27 00:27:34;;;;;;;0.40;0.40;;;;;;;21.04;84.49;95346.34;4277843;33;20254;-61
2022/07/27 00:29:59;;;;;;;0.87;0.87;;;;;;;21.00;84.71;95350.88;4290992;33;20203;-61
2022/07/27 00:32:24;;;;;;;1.20;1.10;;;;;;;21.11;84.78;95349.94;4292830;33;20205;-60
2022/07/27 00:34:50;;;;;;;4.90;1.07;;;;;;;21.12;84.75;95343.41;4292456;33;20309;-61
2022/07/27 00:37:15;;;;;;;0.97;0.80;;;;;;;21.21;84.65;95341.28;4285022;33;20206;-60
2022/07/27 00:39:42;;;;;;;1.50;1.50;;;;;;;21.30;84.14;95343.75;4280492;33;20199;-63
2022/07/27 00:42:07;;;;;;;1.30;1.20;;;;;;;21.23;84.27;95338.22;4286129;33;20190;-60
2022/07/27 00:44:33;;;;;;;0.50;0.50;;;;;;;21.22;84.54;95339.34;4296525;33;20187;-60
2022/07/27 00:46:58;;;;;;;0.90;0.90;;;;;;;21.17;84.25;95340.44;4287388;33;20254;-62
2022/07/27 00:49:28;;;;;;;1.03;1.03;;;;;;;21.16;84.22;95346.19;4296558;33;20305;-61
2022/07/27 00:51:54;;;;;;;0.63;0.63;;;;;;;21.20;84.55;95334.31;4288924;33;20262;-61
2022/07/27 00:54:23;;;;;;;0.90;0.90;;;;;;;21.22;84.55;95331.25;4285325;33;20202;-61
2022/07/27 00:56:49;;;;;;;0.63;0.63;;;;;;;21.21;84.28;95333.19;4272424;33;20194;-61
2022/07/27 00:59:14;;;;;;;0.87;0.87;;;;;;;21.17;84.60;95326.16;4274230;33;20214;-61
2022/07/27 01:01:40;;;;;;;0.77;0.77;;;;;;;21.22;84.63;95325.88;4277824;33;20191;-60
2022/07/27 01:04:06;;;;;;;0.83;0.83;;;;;;;21.20;84.56;95328.13;4286292;33;20208;-60
2022/07/27 01:06:32;;;;;;;0.53;0.53;;;;;;;21.19;83.89;95324.66;4289936;33;20337;-61
2022/07/27 01:11:47;;;;;;;0.60;0.60;;;;;;;21.18;83.90;95323.09;4282633;33;20217;-61
2022/07/27 01:14:13;;;;;;;2.10;0.90;;;;;;;21.18;80.98;95317.69;4293820;33;20231;-61
2022/07/27 01:16:39;;;;;;;1.17;1.07;;;;;;;21.22;78.03;95310.44;4288936;33;20202;-61
2022/07/27 01:19:09;;;;;;;0.47;0.47;;;;;;;21.36;77.19;95304.50;4278696;33;20245;-61
2022/07/27 01:21:36;;;;;;;0.90;0.90;;;;;;;21.30;73.97;95299.78;4296135;33;20205;-60
2022/07/27 01:24:02;;;;;;;0.57;0.57;;;;;;;21.42;77.25;95294.94;4279482;33;20304;-61
2022/07/27 01:26:28;;;;;;;0.80;0.80;;;;;;;21.39;76.08;95297.63;4272916;33;20333;-61
2022/07/27 01:28:58;;;;;;;0.67;0.67;;;;;;;21.40;74.88;95291.06;4281028;33;20213;-60
2022/07/27 01:31:24;;;;;;;3.03;0.83;;;;;;;21.38;75.26;95296.06;4287817;33;20217;-60
2022/07/27 01:33:49;;;;;;;0.50;0.50;;;;;;;21.34;72.43;95298.69;4294115;33;20226;-60
2022/07/27 01:36:15;;;;;;;1.37;0.57;;;;;;;21.36;75.40;95295.63;4292459;33;20240;-61
2022/07/27 01:38:41;;;;;;;0.40;0.40;;;;;;;21.34;75.71;95296.00;4297129;33;20198;-61
2022/07/27 01:41:06;;;;;;;0.60;0.60;;;;;;;21.29;74.50;95282.03;4288632;33;20206;-60
2022/07/27 01:43:31;;;;;;;0.80;0.80;;;;;;;21.30;74.53;95278.97;4293334;33;20238;-60
2022/07/27 01:45:58;;;;;;;0.57;0.57;;;;;;;21.35;73.73;95283.28;4281924;33;20234;-60
2022/07/27 01:48:24;;;;;;;0.50;0.50;;;;;;;21.34;73.75;95279.03;4280310;33;20587;-60
2022/07/27 01:50:50;;;;;;;0.97;0.97;;;;;;;21.31;73.13;95279.75;4287327;33;20217;-60
2022/07/27 01:53:15;;;;;;;0.87;0.87;;;;;;;21.30;72.52;95275.50;4285610;33;20198;-60
2022/07/27 01:55:41;;;;;;;0.97;0.97;;;;;;;21.33;72.29;95275.53;4273958;33;20186;-60
2022/07/27 01:58:07;;;;;;;0.37;0.37;;;;;;;21.16;71.49;95265.22;4285877;33;20195;-60
2022/07/27 02:00:34;;;;;;;0.37;0.37;;;;;;;21.01;71.74;95269.59;4275222;33;20266;-61
2022/07/27 02:02:59;;;;;;;0.20;0.20;;;;;;;21.12;70.27;95264.41;4269491;33;20249;-60
2022/07/27 02:05:25;;;;;;;0.60;0.60;;;;;;;21.09;71.10;95267.81;4283290;33;20217;-60
2022/07/27 02:07:50;;;;;;;0.40;0.40;;;;;;;21.03;72.22;95263.84;4269717;33;20301;-60
2022/07/27 02:10:16;;;;;;;0.33;0.33;;;;;;;21.03;71.95;95278.13;4283721;33;20217;-61
2022/07/27 02:12:41;;;;;;;0.70;0.70;;;;;;;21.05;73.58;95275.06;4283320;33;20238;-62
2022/07/27 02:15:12;;;;;;;0.50;0.50;;;;;;;21.04;70.83;95268.87;4274394;33;20249;-61
2022/07/27 02:17:38;;;;;;;0.53;0.33;;;;;;;21.08;71.62;95271.66;4270504;33;20209;-60
2022/07/27 02:20:05;;;;;;;0.27;0.27;;;;;;;21.06;71.12;95279.31;4271267;33;20203;-61
2022/07/27 02:22:30;;;;;;;3.70;0.60;;;;;;;21.08;71.34;95271.66;4285721;33;20194;-60
2022/07/27 02:24:56;;;;;;;0.40;0.40;;;;;;;21.12;71.75;95286.75;4281515;33;20220;-61
2022/07/27 02:27:21;;;;;;;0.80;0.80;;;;;;;21.21;71.92;95284.59;4283507;33;20286;-61
2022/07/27 02:29:47;;;;;;;1.70;0.87;;;;;;;21.08;70.73;95277.81;4283090;33;20245;-61
2022/07/27 02:32:12;;;;;;;0.90;0.90;;;;;;;21.14;69.92;95281.78;4284032;33;20274;-61
2022/07/27 02:34:38;;;;;;;0.60;0.60;;;;;;;21.01;70.61;95291.19;4285608;33;20209;-61
2022/07/27 02:37:03;;;;;;;0.60;0.60;;;;;;;20.99;71.04;95298.84;4271546;33;20194;-61
2022/07/27 02:39:28;;;;;;;0.57;0.57;;;;;;;21.08;71.19;95302.09;4282167;33;20191;-61
2022/07/27 02:41:54;;;;;;;0.50;0.50;;;;;;;21.02;69.27;95306.22;4282865;33;20205;-60
2022/07/27 02:44:19;;;;;;;0.37;0.37;;;;;;;21.15;70.98;95307.63;4287052;33;20224;-60
2022/07/27 02:46:44;;;;;;;0.30;0.30;;;;;;;21.09;70.04;95309.06;4286277;33;20186;-61
2022/07/27 02:49:10;;;;;;;0.57;0.57;;;;;;;21.17;69.74;95304.56;4274330;33;20243;-60
2022/07/27 02:51:35;;;;;;;0.30;0.30;;;;;;;21.06;70.21;95309.78;4297308;33;20268;-60
2022/07/27 02:54:01;;;;;;;0.33;0.33;;;;;;;21.01;70.52;95301.97;4272796;33;20280;-60
2022/07/27 02:56:26;;;;;;;0.53;0.53;;;;;;;20.98;70.50;95299.25;4285062;33;20207;-60
2022/07/27 02:58:52;;;;;;;0.43;0.43;;;;;;;20.85;68.86;95304.03;4287314;33;20278;-60
2022/07/27 03:01:17;;;;;;;0.20;0.20;;;;;;;20.70;70.31;95308.38;4285511;33;20194;-61
2022/07/27 03:03:42;;;;;;;0.87;0.87;;;;;;;20.81;72.92;95311.25;4290915;33;20226;-61
2022/07/27 03:06:08;;;;;;;0.50;0.40;;;;;;;20.87;75.88;95318.72;4287528;33;20197;-61
2022/07/27 03:08:36;;;;;;;0.57;0.57;;;;;;;20.82;77.32;95308.22;4292746;33;20225;-60
2022/07/27 03:11:01;;;;;;;1.60;0.90;;;;;;;20.81;78.88;95313.97;4290855;33;20278;-60
2022/07/27 03:13:27;;;;;;;1.13;1.03;;;;;;;20.80;78.63;95309.69;4278990;33;20204;-60
2022/07/27 03:15:53;;;;;;;0.73;0.73;;;;;;;20.78;79.59;95302.00;4279404;33;20191;-60
2022/07/27 03:18:19;;;;;;;0.80;0.80;;;;;;;20.82;80.04;95304.72;4272445;33;20198;-60
2022/07/27 03:20:44;;;;;;;1.80;0.90;;;;;;;20.93;80.94;95305.72;4288318;33;20206;-61
2022/07/27 03:23:10;;;;;;;0.83;0.80;;;;;;;20.87;79.61;95307.13;4296260;33;20214;-60
2022/07/27 03:25:35;;;;;;;0.47;0.47;;;;;;;20.89;79.12;95302.16;4274013;33;20194;-61
2022/07/27 03:28:01;;;;;;;1.03;0.93;;;;;;;20.66;79.45;95295.97;4273659;33;20325;-60
2022/07/27 03:30:26;;;;;;;1.83;0.93;;;;;;;20.61;80.45;95298.97;4273291;33;20264;-61
2022/07/27 03:32:51;;;;;;;0.60;0.60;;;;;;;20.57;80.32;95299.69;4278245;33;20238;-60
2022/07/27 03:35:17;;;;;;;0.33;0.33;;;;;;;20.64;78.90;95292.84;4286430;33;20190;-61
2022/07/27 03:37:42;;;;;;;0.70;0.70;;;;;;;20.68;79.31;95299.09;4277277;33;20213;-62
2022/07/27 03:40:09;;;;;;;1.43;1.00;;;;;;;20.62;80.10;95297.81;4286521;33;20194;-61
2022/07/27 03:42:34;;;;;;;1.07;1.07;;;;;;;20.70;79.14;95297.59;4287328;33;20257;-61
2022/07/27 03:44:59;;;;;;;0.70;0.70;;;;;;;20.66;78.84;95301.38;4272283;33;20187;-60
2022/07/27 03:47:25;;;;;;;0.50;0.50;;;;;;;20.56;79.08;95298.13;4273747;33;20203;-60
2022/07/27 03:49:51;;;;;;;1.53;1.30;;;;;;;20.42;78.60;95299.75;4276396;33;20237;-60
2022/07/27 03:52:18;;;;;;;0.77;0.77;;;;;;;20.33;77.65;95297.28;4286510;33;20253;-60
2022/07/27 03:54:43;;;;;;;0.27;0.27;;;;;;;20.32;78.84;95297.63;4286268;33;20187;-61
2022/07/27 03:57:09;;;;;;;1.13;1.13;;;;;;;20.14;78.73;95291.91;4273060;33;20183;-60
2022/07/27 03:59:34;;;;;;;1.00;0.97;;;;;;;20.17;78.38;95285.78;4286007;33;20187;-60
2022/07/27 04:01:59;;;;;;;0.40;0.40;;;;;;;20.03;77.59;95288.97;4283555;33;20249;-60
2022/07/27 04:04:25;;;;;;;0.97;0.90;;;;;;;20.14;79.62;95286.50;4285713;33;20258;-60
2022/07/27 04:06:50;;;;;;;3.40;0.50;;;;;;;20.12;79.38;95281.47;4284398;33;20179;-60
2022/07/27 04:09:15;;;;;;;5.20;0.93;;;;;;;20.20;80.32;95279.69;4290631;33;20209;-60
2022/07/27 04:11:42;;;;;;;0.40;0.40;;;;;;;20.21;79.78;95281.25;4280339;33;20244;-60
2022/07/27 04:14:07;;;;;;;1.10;1.03;;;;;;;20.27;79.30;95279.06;4282797;33;20202;-60
2022/07/27 04:16:33;;;;;;;0.87;0.87;;;;;;;20.15;74.56;95275.37;4285362;33;20254;-60
2022/07/27 04:18:58;;;;;;;0.93;0.93;;;;;;;20.17;75.20;95269.63;4272883;33;20234;-60
2022/07/27 04:21:23;;;;;;;0.73;0.73;;;;;;;20.14;74.48;95275.75;4286348;33;20238;-60
2022/07/27 04:23:49;;;;;;;0.30;0.30;;;;;;;20.15;77.42;95274.59;4291081;33;20195;-61
2022/07/27 04:26:14;;;;;;;0.67;0.67;;;;;;;19.94;73.08;95274.19;4288415;33;20191;-60
2022/07/27 04:28:41;;;;;;;0.50;0.50;;;;;;;20.06;77.74;95280.19;4284072;33;20258;-60
2022/07/27 04:31:06;;;;;;;0.60;0.60;;;;;;;19.98;76.37;95280.41;4271748;33;20186;-61
2022/07/27 04:33:31;;;;;;;8.97;1.20;;;;;;;19.94;75.47;95279.56;4284744;33;20317;-60
2022/07/27 04:35:57;;;;;;;2.80;0.80;;;;;;;19.99;77.07;95280.03;4280046;33;20195;-60
2022/07/27 04:38:22;;;;;;;0.57;0.57;;;;;;;19.98;77.25;95277.69;4281284;33;20267;-61
2022/07/27 04:40:47;;;;;;;0.70;0.70;;;;;;;20.16;77.84;95278.84;4282854;33;20195;-60
2022/07/27 04:43:13;;;;;;;0.50;0.50;;;;;;;20.32;77.25;95279.56;4271451;33;20194;-61
2022/07/27 04:45:38;;;;;;;9.27;1.03;;;;;;;20.20;75.80;95287.78;4287291;33;20194;-61
2022/07/27 04:48:07;;;;;;;2.33;0.77;;;;;;;20.26;75.98;95289.06;4283832;33;20187;-61
2022/07/27 04:50:43;;;;;;;0.67;0.67;;;;;;;20.25;75.97;95287.50;4271798;33;20311;-61
2022/07/27 04:53:10;;;;;;;1.03;0.80;;;;;;;20.14;74.32;95286.50;4271558;33;20204;-60
2022/07/27 04:55:36;;;;;;;0.90;0.90;;;;;;;20.13;74.77;95284.94;4282910;33;20191;-60
2022/07/27 04:58:02;;;;;;;0.43;0.43;;;;;;;20.07;74.19;95281.75;4290138;33;20265;-60
2022/07/27 05:00:27;;;;;;;0.40;0.40;;;;;;;20.16;75.41;95279.62;4275948;33;20230;-60
2022/07/27 05:02:53;;;;;;;0.80;0.80;;;;;;;20.14;74.93;95291.91;4286522;33;20267;-60
2022/07/27 05:05:19;;;;;;;0.53;0.53;;;;;;;20.28;76.58;95284.09;4285710;33;20195;-61
2022/07/27 05:07:45;;;;;;;0.70;0.70;;;;;;;20.39;75.56;95297.78;4285799;33;20234;-60
2022/07/27 05:10:10;;;;;;;0.70;0.70;;;;;;;20.44;75.46;95295.59;4286256;33;20190;-60
2022/07/27 05:12:36;;;;;;;0.70;0.70;;;;;;;20.29;73.25;95299.13;4285172;33;20191;-61
2022/07/27 05:15:02;;;;;;;0.50;0.50;;;;;;;20.33;75.66;95291.88;4282424;33;20337;-60
2022/07/27 05:17:27;;;;;;;0.67;0.67;;;;;;;20.32;75.27;95293.03;4270377;33;20218;-60
2022/07/27 05:19:53;;;;;;;6.13;0.60;;;;;;;20.35;76.35;95297.72;4281127;33;20202;-60
2022/07/27 05:22:18;;;;;;;0.73;0.73;;;;;;;20.33;74.71;95299.97;4282184;33;20262;-60
2022/07/27 05:24:44;;;;;;;1.00;0.97;;;;;;;20.31;73.39;95294.16;4283974;33;20217;-61
2022/07/27 05:27:11;;;;;;;0.73;0.73;;;;;;;20.23;73.98;95295.94;4285866;33;20195;-60
2022/07/27 05:29:36;;;;;;;1.17;1.17;;;;;;;20.32;75.74;95298.41;4279766;33;20200;-60
2022/07/27 05:32:01;;;;;;;2.67;1.20;;;;;;;20.39;74.43;95301.25;4286569;33;20284;-60
2022/07/27 05:34:27;;;;;;;1.90;0.57;;;;;;;20.57;75.48;95304.31;4272745;33;20206;-60
2022/07/27 05:36:52;;;;;;;0.70;0.70;;;;;;;20.61;75.38;95313.22;4271939;33;20235;-61
2022/07/27 05:39:17;;;;;;;0.90;0.90;;;;;;;20.71;73.71;95307.25;4285185;33;20202;-60
2022/07/27 05:41:43;;;;;;;0.57;0.57;;;;;;;20.71;72.90;95314.56;4282592;33;20262;-60
2022/07/27 05:44:08;;;;;;;0.43;0.43;;;;;;;20.67;72.70;95316.41;4286743;33;20194;-61
2022/07/27 05:46:35;;;;;;;0.40;0.40;;;;;;;20.68;71.67;95316.06;4284618;33;20242;-60
2022/07/27 05:49:00;;;;;;;0.70;0.70;;;;;;;20.66;72.51;95325.62;4275338;33;20203;-60
2022/07/27 05:51:26;;;;;;;0.70;0.70;;;;;;;20.61;73.68;95325.91;4283604;33;20206;-60
2022/07/27 05:53:51;;;;;;;3.87;0.70;;;;;;;20.54;72.34;95321.97;4283211;33;20293;-60
2022/07/27 05:56:16;;;;;;;0.87;0.87;;;;;;;20.42;72.96;95322.09;4284455;33;20214;-61
2022/07/27 05:58:42;;;;;;;0.93;0.93;;;;;;;20.46;70.62;95320.25;4286985;33;20234;-61
2022/07/27 06:01:07;;;;;;;2.83;1.33;;;;;;;20.48;74.02;95326.09;4289684;33;20195;-61
2022/07/27 06:03:32;;;;;;;0.80;0.80;;;;;;;20.63;72.26;95323.66;4271348;33;20195;-61
2022/07/27 06:08:43;;;;;;;0.63;0.63;;;;;;;20.72;70.57;95321.50;4282775;33;20263;-61
2022/07/27 06:11:09;;;;;;;1.30;0.90;;;;;;;20.70;72.52;95323.78;4273279;33;20194;-61
2022/07/27 06:13:35;;;;;;;0.30;0.30;;;;;;;20.78;70.90;95336.28;4276247;33;20216;-61
2022/07/27 06:16:01;;;;;;;0.93;0.93;;;;;;;20.86;72.37;95319.06;4285225;33;20198;-61
2022/07/27 06:18:27;;;;;;;0.67;0.67;;;;;;;20.97;72.57;95325.44;4285200;33;20268;-61
2022/07/27 06:20:52;;;;;;;0.60;0.60;;;;;;;21.06;72.76;95319.78;4295075;33;20245;-61
2022/07/27 06:23:17;;;;;;;0.63;0.63;;;;;;;21.08;70.41;95326.38;4288252;33;20199;-61
2022/07/27 06:25:43;;;;;;;0.47;0.47;;;;;;;21.16;71.36;95330.00;4291143;33;20206;-61
2022/07/27 06:28:08;;;;;;;1.10;1.10;;;;;;;21.15;70.50;95323.03;4284087;33;20325;-60
2022/07/27 06:30:34;;;;;;;0.70;0.70;;;;;;;21.16;69.56;95325.38;4285690;33;20213;-61
2022/07/27 06:33:03;;;;;;;0.57;0.57;;;;;;;21.17;71.62;95331.56;4278244;33;20194;-61
2022/07/27 06:35:28;;;;;;;1.13;1.03;;;;;;;21.11;72.24;95328.37;4272294;33;20194;-61
2022/07/27 06:37:54;;;;;;;0.87;0.87;;;;;;;21.11;70.81;95325.66;4285384;33;20210;-61
2022/07/27 06:40:20;;;;;;;1.27;1.27;;;;;;;21.08;69.84;95323.69;4285771;33;20226;-60
2022/07/27 06:42:45;;;;;;;0.83;0.83;;;;;;;20.99;70.59;95327.78;4285262;33;20190;-61
2022/07/27 06:45:11;;;;;;;2.50;0.83;;;;;;;21.10;71.59;95326.03;4277593;33;20195;-61
2022/07/27 06:47:38;;;;;;;0.67;0.67;;;;;;;21.17;72.15;95326.94;4273284;33;20194;-61
2022/07/27 06:50:04;;;;;;;0.40;0.40;;;;;;;21.07;68.76;95324.81;4285098;33;20195;-61
2022/07/27 06:52:29;;;;;;;0.40;0.40;;;;;;;21.09;70.97;95325.25;4272327;33;20213;-61
2022/07/27 06:54:55;;;;;;;0.50;0.50;;;;;;;21.24;71.52;95327.06;4286990;33;20202;-61
2022/07/27 06:57:20;;;;;;;0.83;0.83;;;;;;;21.33;71.06;95323.34;4297804;33;20217;-61
2022/07/27 06:59:46;;;;;;;0.73;0.73;;;;;;;21.34;70.47;95314.13;4288040;33;20209;-61
2022/07/27 07:02:11;;;;;;;0.40;0.40;;;;;;;21.33;69.24;95315.25;4275162;33;20217;-61
2022/07/27 07:04:37;;;;;;;0.50;0.50;;;;;;;21.17;66.83;95324.25;4276944;33;20209;-61
2022/07/27 07:07:02;;;;;;;0.77;0.77;;;;;;;21.20;68.34;95326.22;4286418;33;20190;-61
2022/07/27 07:09:28;;;;;;;0.93;0.93;;;;;;;21.26;68.93;95324.00;4289310;33;20217;-61
2022/07/27 07:11:54;;;;;;;0.53;0.53;;;;;;;21.42;69.59;95321.94;4288907;33;20229;-61
2022/07/27 07:14:20;;;;;;;0.93;0.93;;;;;;;21.46;68.79;95311.19;4287161;33;20198;-60
2022/07/27 07:16:45;;;;;;;0.60;0.60;;;;;;;21.44;69.16;95313.47;4273109;33;20186;-61
2022/07/27 07:19:11;;;;;;;0.63;0.63;;;;;;;21.61;68.40;95307.59;4287815;33;20226;-61
2022/07/27 07:21:36;;;;;;;0.67;0.67;;;;;;;21.56;66.62;95300.56;4286545;33;20214;-61
2022/07/27 07:24:02;;;;;;;0.53;0.53;;;;;;;21.72;66.03;95299.63;4286486;33;20269;-61
2022/07/27 07:26:27;;;;;;;0.77;0.77;;;;;;;21.82;68.18;95305.16;4277751;33;20190;-60
2022/07/27 07:28:52;;;;;;;0.73;0.73;;;;;;;21.83;66.14;95304.03;4285611;33;20190;-60
2022/07/27 07:31:19;;;;;;;1.10;1.10;;;;;;;21.92;65.97;95306.47;4285628;33;20201;-61
2022/07/27 07:33:44;;;;;;;0.60;0.60;;;;;;;21.90;67.98;95306.81;4286508;33;20210;-59
2022/07/27 07:36:10;;;;;;;0.40;0.40;;;;;;;22.04;66.59;95297.38;4287211;33;20212;-61
2022/07/27 07:38:35;;;;;;;1.13;1.13;;;;;;;22.07;67.11;95302.03;4288889;33;20202;-61
2022/07/27 07:41:01;;;;;;;1.60;1.07;;;;;;;22.18;66.05;95294.84;4276444;33;24257;-62
2022/07/27 07:43:27;;;;;;;0.80;0.80;;;;;;;22.36;67.47;95292.34;4275800;33;20197;-61
2022/07/27 07:45:54;;;;;;;1.27;0.93;;;;;;;22.46;62.96;95294.38;4291561;33;20260;-60
2022/07/27 07:48:20;;;;;;;0.53;0.53;;;;;;;22.60;64.39;95291.84;4278806;33;20199;-63
2022/07/27 07:50:47;;;;;;;0.53;0.53;;;;;;;22.60;63.72;95299.97;4280850;33;20186;-61
2022/07/27 07:53:14;;;;;;;1.43;1.33;;;;;;;22.66;63.82;95303.09;4274609;33;20327;-61
2022/07/27 07:55:39;;;;;;;3.30;1.33;;;;;;;22.60;60.52;95303.44;4283276;33;20212;-61
2022/07/27 07:58:04;;;;;;;0.77;0.40;;;;;;;22.65;62.64;95302.34;4272864;33;20199;-60
2022/07/27 08:00:30;;;;;;;0.60;0.60;;;;;;;22.74;61.52;95302.03;4288357;33;20191;-61
2022/07/27 08:02:58;;;;;;;0.37;0.37;;;;;;;22.81;62.02;95296.72;4288462;33;20195;-60
2022/07/27 08:05:25;;;;;;;0.30;0.30;;;;;;;22.70;59.61;95302.00;4292314;33;20212;-61
2022/07/27 08:07:51;;;;;;;0.67;0.67;;;;;;;22.83;60.34;95305.25;4276942;33;20191;-60
2022/07/27 08:10:19;;;;;;;0.33;0.33;;;;;;;22.88;61.15;95307.59;4283881;33;20190;-61
2022/07/27 08:12:47;;;;;;;0.73;0.73;;;;;;;22.90;60.71;95297.19;4285601;33;20208;-63
2022/07/27 08:15:14;;;;;;;0.83;0.83;;;;;;;22.73;60.11;95305.87;4272616;33;20191;-61
2022/07/27 08:17:41;;;;;;;0.70;0.70;;;;;;;22.90;58.17;95310.72;4287588;33;20201;-59
2022/07/27 08:20:07;;;;;;;0.50;0.10;;;;;;;22.89;57.75;95303.75;4285885;33;20241;-60
2022/07/27 08:22:33;;;;;;;0.80;0.80;;;;;;;22.78;56.22;95303.66;4272993;33;20201;-60
2022/07/27 08:24:58;;;;;;;0.70;0.70;;;;;;;22.86;56.85;95309.94;4286003;33;20198;-60
2022/07/27 08:27:24;;;;;;;0.50;0.50;;;;;;;22.90;55.03;95311.50;4272260;33;20234;-60
2022/07/27 08:29:49;;;;;;;0.60;0.60;;;;;;;22.91;56.85;95309.56;4272955;33;20195;-61
2022/07/27 08:32:15;;;;;;;1.50;0.63;;;;;;;22.92;56.69;95313.84;4285914;33;20245;-61
2022/07/27 08:34:40;;;;;;;0.43;0.43;;;;;;;22.97;55.69;95310.78;4277196;33;20238;-59
2022/07/27 08:37:05;;;;;;;0.57;0.57;;;;;;;22.93;56.69;95323.50;4285466;33;20213;-60
2022/07/27 08:39:31;;;;;;;0.43;0.43;;;;;;;22.82;56.05;95314.53;4285414;33;27054;-61
2022/07/27 08:42:02;;;;;;;0.70;0.70;;;;;;;22.76;58.37;95315.97;4272809;33;20202;-61
2022/07/27 08:44:28;;;;;;;0.67;0.67;;;;;;;22.81;56.54;95318.38;4273793;33;20191;-60
2022/07/27 08:46:56;;;;;;;1.40;0.50;;;;;;;22.84;54.93;95328.47;4285517;33;20269;-61
2022/07/27 08:49:22;;;;;;;5.30;0.63;;;;;;;22.78;54.78;95324.53;4272896;33;20195;-61
2022/07/27 08:51:49;;;;;;;1.00;0.97;;;;;;;22.71;56.48;95325.19;4284797;33;20194;-61
2022/07/27 08:54:15;;;;;;;1.40;0.70;;;;;;;22.76;55.90;95327.56;4286168;33;20214;-60
2022/07/27 08:56:42;;;;;;;0.43;0.43;;;;;;;22.84;55.46;95328.47;4287068;33;20253;-61
2022/07/27 08:59:07;;;;;;;0.97;0.90;;;;;;;22.87;55.07;95328.47;4277423;33;20277;-60
2022/07/27 09:01:36;;;;;;;0.50;0.50;;;;;;;22.79;54.43;95332.28;4285294;33;20195;-60
2022/07/27 09:04:02;;;;;;;1.00;1.00;;;;;;;22.69;54.76;95326.72;4271162;33;20324;-60
2022/07/27 09:06:46;;;;;;;1.10;0.77;;;;;;;22.71;55.76;95330.59;4281039;33;20195;-60
2022/07/27 09:09:13;;;;;;;0.43;0.43;;;;;;;22.65;56.28;95331.31;4285405;33;20182;-60
2022/07/27 09:11:38;;;;;;;0.30;0.30;;;;;;;22.72;56.37;95334.09;4286710;33;20258;-60
2022/07/27 09:14:06;;;;;;;0.43;0.43;;;;;;;22.67;57.45;95334.41;4289825;33;20198;-61
2022/07/27 09:16:33;;;;;;;1.23;1.23;;;;;;;22.75;56.89;95331.41;4286864;33;21633;-60
2022/07/27 09:19:01;;;;;;;0.20;0.20;;;;;;;22.82;56.59;95339.66;4292678;33;20255;-60
2022/07/27 09:21:27;;;;;;;0.30;0.30;;;;;;;22.85;54.07;95338.13;4275418;33;20199;-60
2022/07/27 09:24:08;;;;;;;0.40;0.40;;;;;;;22.89;55.15;95341.63;4275522;33;20281;-60
2022/07/27 09:26:34;;;;;;;0.20;0.20;;;;;;;22.96;54.29;95344.41;4281650;33;20209;-60
2022/07/27 09:29:06;;;;;;;0.20;0.20;;;;;;;22.87;54.50;95341.22;4283306;33;20206;-60
2022/07/27 09:31:40;;;;;;;0.37;0.37;;;;;;;22.86;54.68;95337.72;4283938;33;20212;-60
2022/07/27 09:34:06;;;;;;;0.50;0.50;;;;;;;22.83;54.13;95341.22;4284547;33;20205;-61
2022/07/27 09:36:33;;;;;;;0.70;0.70;;;;;;;22.88;55.08;95345.47;4283474;33;20234;-60
2022/07/27 09:39:05;;;;;;;0.77;0.70;;;;;;;22.92;55.37;95335.47;4271553;33;20198;-60
2022/07/27 09:41:50;;;;;;;0.53;0.53;;;;;;;22.92;56.10;95335.47;4285811;33;20198;-60
2022/07/27 09:44:16;;;;;;;0.40;0.40;;;;;;;22.96;54.76;95330.88;4276792;33;20220;-61
2022/07/27 09:46:45;;;;;;;0.47;0.47;;;;;;;23.02;54.20;95332.12;4291678;33;20186;-60
2022/07/27 09:49:33;;;;;;;0.40;0.40;;;;;;;23.15;53.61;95327.97;4287921;33;20223;-61
2022/07/27 09:52:01;;;;;;;0.30;0.30;;;;;;;23.19;53.88;95334.19;4270822;33;20213;-62
2022/07/27 09:54:26;;;;;;;0.60;0.60;;;;;;;23.25;51.00;95335.41;4285074;33;20220;-60
2022/07/27 09:57:02;;;;;;;0.20;0.20;;;;;;;23.35;50.92;95336.63;4272947;33;20249;-61
2022/07/27 09:59:28;;;;;;;0.40;0.40;;;;;;;23.35;50.28;95335.87;4278414;33;20198;-60
2022/07/27 10:01:55;;;;;;;0.43;0.43;;;;;;;23.19;50.66;95334.19;4271462;33;20190;-60
2022/07/27 10:04:21;;;;;;;4.50;0.80;;;;;;;23.22;51.38;95338.88;4285673;33;20198;-60
2022/07/27 10:06:46;;;;;;;1.40;0.70;;;;;;;23.28;53.80;95336.56;4271080;33;20246;-60
2022/07/27 10:09:12;;;;;;;0.43;0.43;;;;;;;23.26;51.30;95336.19;4286231;33;20190;-62
2022/07/27 10:11:38;;;;;;;1.90;0.70;;;;;;;23.16;52.33;95340.34;4285963;33;20191;-60
2022/07/27 10:14:03;;;;;;;0.40;0.40;;;;;;;23.33;51.16;95336.25;4271581;33;20233;-60
2022/07/27 10:16:31;;;;;;;0.60;0.60;;;;;;;23.48;51.28;95335.22;4270675;33;20194;-60
2022/07/27 10:19:19;;;;;;;1.50;1.00;;;;;;;23.42;51.81;95335.94;4278467;33;20194;-60
2022/07/27 10:21:46;;;;;;;0.60;0.60;;;;;;;23.42;51.96;95338.63;4285248;33;20220;-60
2022/07/27 10:24:23;;;;;;;1.03;0.93;;;;;;;23.42;51.52;95341.34;4292175;33;20199;-60
2022/07/27 10:26:49;;;;;;;2.30;1.70;;;;;;;23.48;51.71;95339.84;4284058;33;20199;-59
2022/07/27 10:29:19;;;;;;;0.53;0.53;;;;;;;23.49;51.14;95341.38;4270410;33;20194;-60
2022/07/27 10:31:54;;;;;;;0.83;0.83;;;;;;;23.56;52.15;95349.59;4285169;33;20217;-60
2022/07/27 10:34:41;;;;;;;0.93;0.90;;;;;;;23.53;51.76;95339.50;4279966;33;20243;-60
2022/07/27 10:37:15;;;;;;;0.57;0.57;;;;;;;23.67;50.49;95347.75;4285233;33;20195;-60
2022/07/27 10:39:44;;;;;;;1.80;1.33;;;;;;;23.76;50.68;95339.28;4279523;33;20207;-60
2022/07/27 10:42:25;;;;;;;0.57;0.57;;;;;;;23.75;52.04;95351.28;4282887;33;20187;-61
2022/07/27 10:44:52;;;;;;;0.60;0.60;;;;;;;23.88;49.48;95347.12;4270876;33;20186;-60
2022/07/27 10:47:29;;;;;;;0.73;0.73;;;;;;;23.85;49.82;95348.66;4286232;33;20215;-60
2022/07/27 10:50:16;;;;;;;1.97;1.57;;;;;;;23.89;49.69;95354.09;4286494;33;20249;-60
2022/07/27 10:52:47;;;;;;;1.03;0.83;;;;;;;23.96;48.99;95357.63;4281447;33;20203;-62
2022/07/27 10:55:35;;;;;;;1.30;0.87;;;;;;;23.85;49.52;95350.59;4288835;33;20208;-60
2022/07/27 10:58:09;;;;;;;1.07;1.07;;;;;;;23.75;49.64;95346.66;4281826;33;20203;-60
2022/07/27 11:00:49;;;;;;;0.70;0.70;;;;;;;23.85;48.83;95358.72;4287558;33;20245;-60
2022/07/27 11:03:35;;;;;;;3.07;2.87;;;;;;;23.81;48.84;95345.16;4282135;33;20191;-60
2022/07/27 11:06:11;;;;;;;1.40;1.30;;;;;;;23.85;48.77;95353.31;4283957;33;20201;-60
2022/07/27 11:08:39;;;;;;;0.67;0.67;;;;;;;23.94;49.01;95340.94;4268225;33;20187;-60
2022/07/27 11:11:14;;;;;;;0.43;0.43;;;;;;;24.04;48.11;95344.13;4273142;33;20195;-60
2022/07/27 11:13:39;;;;;;;0.87;0.53;;;;;;;24.05;47.94;95340.25;4276541;33;20283;-60
2022/07/27 11:16:16;;;;;;;0.60;0.60;;;;;;;24.04;48.43;95338.69;4287298;33;20194;-60
2022/07/27 11:18:43;;;;;;;1.03;1.03;;;;;;;24.04;48.32;95346.81;4272205;33;20195;-62
2022/07/27 11:21:22;;;;;;;0.40;0.40;;;;;;;24.15;47.96;95350.34;4287523;33;20203;-60
2022/07/27 11:23:52;;;;;;;0.40;0.40;;;;;;;24.13;47.18;95360.81;4276937;33;20186;-60
2022/07/27 11:26:19;;;;;;;0.67;0.67;;;;;;;24.07;46.76;95348.78;4284091;33;20191;-60
2022/07/27 11:28:45;;;;;;;0.47;0.47;;;;;;;24.04;50.27;95349.53;4273213;33;20191;-61
2022/07/27 11:31:12;;;;;;;0.30;0.30;;;;;;;24.05;48.57;95353.81;4275884;33;20194;-61
2022/07/27 11:33:51;;;;;;;0.43;0.43;;;;;;;24.06;46.85;95342.59;4287233;33;20233;-59
2022/07/27 11:36:17;;;;;;;0.20;0.20;;;;;;;24.02;46.88;95344.50;4284903;33;20232;-60
2022/07/27 11:38:53;;;;;;;0.53;0.50;;;;;;;24.10;47.05;95337.97;4280906;33;20234;-61